sensor_id;sensor_type;location;lat;lon;timestamp;P1;durP1;ratioP1;P2;durP2;ratioP2
16282;SDS011;8249;48.708;9.030;2022-08-18T00:01:57;5.73;;;5.23;;
16282;SDS011;8249;48.708;9.030;2022-08-18T00:04:30;6.07;;;5.47;;
16282;SDS011;8249;48.708;9.030;2022-08-18T00:07:00;6.20;;;5.70;;
16282;SDS011;8249;48.708;9.030;2022-08-18T00:09:27;5.80;;;5.40;;
16282;SDS011;8249;48.708;9.030;2022-08-18T00:11:54;6.60;;;6.10;;
16282;SDS011;8249;48.708;9.030;2022-08-18T00:14:21;6.13;;;5.63;;
16282;SDS011;8249;48.708;9.030;2022-08-18T00:16:51;6.23;;;5.73;;
16282;SDS011;8249;48.708;9.030;2022-08-18T00:19:19;5.87;;;5.37;;
16282;SDS011;8249;48.708;9.030;2022-08-18T00:21:46;6.30;;;5.70;;
16282;SDS011;8249;48.708;9.030;2022-08-18T00:24:13;5.90;;;5.50;;
16282;SDS011;8249;48.708;9.030;2022-08-18T00:26:40;6.10;;;5.60;;
16282;SDS011;8249;48.708;9.030;2022-08-18T00:29:07;6.23;;;5.63;;
16282;SDS011;8249;48.708;9.030;2022-08-18T00:31:34;6.27;;;5.77;;
16282;SDS011;8249;48.708;9.030;2022-08-18T00:34:03;7.00;;;5.67;;
16282;SDS011;8249;48.708;9.030;2022-08-18T00:36:30;6.30;;;5.83;;
16282;SDS011;8249;48.708;9.030;2022-08-18T00:38:58;8.00;;;5.90;;
16282;SDS011;8249;48.708;9.030;2022-08-18T00:41:26;5.70;;;5.20;;
16282;SDS011;8249;48.708;9.030;2022-08-18T00:43:53;6.13;;;5.63;;
16282;SDS011;8249;48.708;9.030;2022-08-18T00:46:23;6.20;;;5.80;;
16282;SDS011;8249;48.708;9.030;2022-08-18T00:48:52;6.20;;;5.60;;
16282;SDS011;8249;48.708;9.030;2022-08-18T00:51:21;6.20;;;5.70;;
16282;SDS011;8249;48.708;9.030;2022-08-18T00:53:52;6.20;;;5.70;;
16282;SDS011;8249;48.708;9.030;2022-08-18T00:56:27;6.67;;;5.93;;
16282;SDS011;8249;48.708;9.030;2022-08-18T00:59:08;6.23;;;5.73;;
16282;SDS011;8249;48.708;9.030;2022-08-18T01:01:40;7.60;;;6.00;;
16282;SDS011;8249;48.708;9.030;2022-08-18T01:04:11;6.23;;;5.73;;
16282;SDS011;8249;48.708;9.030;2022-08-18T01:06:45;5.80;;;5.40;;
16282;SDS011;8249;48.708;9.030;2022-08-18T01:09:19;6.07;;;5.67;;
16282;SDS011;8249;48.708;9.030;2022-08-18T01:11:46;6.23;;;5.70;;
16282;SDS011;8249;48.708;9.030;2022-08-18T01:14:13;6.13;;;5.63;;
16282;SDS011;8249;48.708;9.030;2022-08-18T01:16:42;6.37;;;5.87;;
16282;SDS011;8249;48.708;9.030;2022-08-18T01:19:27;6.30;;;5.80;;
16282;SDS011;8249;48.708;9.030;2022-08-18T01:22:16;6.47;;;5.97;;
16282;SDS011;8249;48.708;9.030;2022-08-18T01:24:49;6.30;;;5.80;;
16282;SDS011;8249;48.708;9.030;2022-08-18T01:27:34;5.90;;;5.50;;
16282;SDS011;8249;48.708;9.030;2022-08-18T01:30:03;6.80;;;6.20;;
16282;SDS011;8249;48.708;9.030;2022-08-18T01:32:35;6.63;;;5.90;;
16282;SDS011;8249;48.708;9.030;2022-08-18T01:35:04;6.67;;;6.17;;
16282;SDS011;8249;48.708;9.030;2022-08-18T01:37:34;6.27;;;5.77;;
16282;SDS011;8249;48.708;9.030;2022-08-18T01:40:04;6.57;;;5.80;;
16282;SDS011;8249;48.708;9.030;2022-08-18T01:42:33;6.77;;;6.17;;
16282;SDS011;8249;48.708;9.030;2022-08-18T01:45:01;6.40;;;5.90;;
16282;SDS011;8249;48.708;9.030;2022-08-18T01:47:30;7.00;;;6.40;;
16282;SDS011;8249;48.708;9.030;2022-08-18T01:49:58;6.80;;;6.30;;
16282;SDS011;8249;48.708;9.030;2022-08-18T01:52:26;6.13;;;5.73;;
16282;SDS011;8249;48.708;9.030;2022-08-18T01:54:54;6.70;;;6.00;;
16282;SDS011;8249;48.708;9.030;2022-08-18T01:57:23;6.90;;;6.30;;
16282;SDS011;8249;48.708;9.030;2022-08-18T01:59:51;6.90;;;6.20;;
16282;SDS011;8249;48.708;9.030;2022-08-18T02:02:21;6.03;;;5.57;;
16282;SDS011;8249;48.708;9.030;2022-08-18T02:04:50;7.27;;;6.53;;
16282;SDS011;8249;48.708;9.030;2022-08-18T02:07:20;6.83;;;6.23;;
16282;SDS011;8249;48.708;9.030;2022-08-18T02:09:47;7.03;;;5.90;;
16282;SDS011;8249;48.708;9.030;2022-08-18T02:12:14;6.13;;;5.50;;
16282;SDS011;8249;48.708;9.030;2022-08-18T02:14:43;6.10;;;5.60;;
16282;SDS011;8249;48.708;9.030;2022-08-18T02:17:11;6.53;;;5.97;;
16282;SDS011;8249;48.708;9.030;2022-08-18T02:19:39;6.30;;;5.87;;
16282;SDS011;8249;48.708;9.030;2022-08-18T02:22:08;6.13;;;5.73;;
16282;SDS011;8249;48.708;9.030;2022-08-18T02:24:37;6.93;;;6.23;;
16282;SDS011;8249;48.708;9.030;2022-08-18T02:27:05;7.00;;;6.47;;
16282;SDS011;8249;48.708;9.030;2022-08-18T02:29:33;6.73;;;6.23;;
16282;SDS011;8249;48.708;9.030;2022-08-18T02:32:02;6.50;;;6.00;;
16282;SDS011;8249;48.708;9.030;2022-08-18T02:34:29;7.67;;;7.07;;
16282;SDS011;8249;48.708;9.030;2022-08-18T02:36:57;7.83;;;7.10;;
16282;SDS011;8249;48.708;9.030;2022-08-18T02:39:24;6.77;;;6.10;;
16282;SDS011;8249;48.708;9.030;2022-08-18T02:41:51;7.00;;;6.47;;
16282;SDS011;8249;48.708;9.030;2022-08-18T02:44:18;7.93;;;7.23;;
16282;SDS011;8249;48.708;9.030;2022-08-18T02:46:48;8.20;;;7.40;;
16282;SDS011;8249;48.708;9.030;2022-08-18T02:49:19;7.83;;;7.10;;
16282;SDS011;8249;48.708;9.030;2022-08-18T02:51:46;7.70;;;7.00;;
16282;SDS011;8249;48.708;9.030;2022-08-18T02:54:15;7.80;;;7.10;;
16282;SDS011;8249;48.708;9.030;2022-08-18T02:56:43;7.10;;;6.50;;
16282;SDS011;8249;48.708;9.030;2022-08-18T02:59:12;8.20;;;7.50;;
16282;SDS011;8249;48.708;9.030;2022-08-18T03:01:41;7.70;;;7.10;;
16282;SDS011;8249;48.708;9.030;2022-08-18T03:04:11;7.50;;;6.90;;
16282;SDS011;8249;48.708;9.030;2022-08-18T03:06:43;7.40;;;6.60;;
16282;SDS011;8249;48.708;9.030;2022-08-18T03:09:11;7.67;;;7.03;;
16282;SDS011;8249;48.708;9.030;2022-08-18T03:11:39;7.90;;;7.20;;
16282;SDS011;8249;48.708;9.030;2022-08-18T03:14:07;8.13;;;7.43;;
16282;SDS011;8249;48.708;9.030;2022-08-18T03:16:34;8.30;;;7.57;;
16282;SDS011;8249;48.708;9.030;2022-08-18T03:19:04;7.90;;;7.03;;
16282;SDS011;8249;48.708;9.030;2022-08-18T03:21:32;8.60;;;7.90;;
16282;SDS011;8249;48.708;9.030;2022-08-18T03:24:01;8.33;;;7.70;;
16282;SDS011;8249;48.708;9.030;2022-08-18T03:26:30;8.03;;;7.40;;
16282;SDS011;8249;48.708;9.030;2022-08-18T03:28:58;8.57;;;7.70;;
16282;SDS011;8249;48.708;9.030;2022-08-18T03:31:27;8.47;;;7.67;;
16282;SDS011;8249;48.708;9.030;2022-08-18T03:33:56;8.37;;;7.67;;
16282;SDS011;8249;48.708;9.030;2022-08-18T03:36:26;8.27;;;7.40;;
16282;SDS011;8249;48.708;9.030;2022-08-18T03:38:56;9.73;;;8.87;;
16282;SDS011;8249;48.708;9.030;2022-08-18T03:41:25;8.80;;;8.10;;
16282;SDS011;8249;48.708;9.030;2022-08-18T03:43:53;8.30;;;7.60;;
16282;SDS011;8249;48.708;9.030;2022-08-18T03:46:21;10.13;;;8.23;;
16282;SDS011;8249;48.708;9.030;2022-08-18T03:48:49;9.43;;;8.53;;
16282;SDS011;8249;48.708;9.030;2022-08-18T03:51:18;9.37;;;8.47;;
16282;SDS011;8249;48.708;9.030;2022-08-18T03:53:46;8.63;;;7.83;;
16282;SDS011;8249;48.708;9.030;2022-08-18T03:56:15;10.73;;;8.30;;
16282;SDS011;8249;48.708;9.030;2022-08-18T03:58:46;9.77;;;7.63;;
16282;SDS011;8249;48.708;9.030;2022-08-18T04:01:15;8.97;;;8.23;;
16282;SDS011;8249;48.708;9.030;2022-08-18T04:03:46;8.57;;;7.83;;
16282;SDS011;8249;48.708;9.030;2022-08-18T04:06:16;9.17;;;8.37;;
16282;SDS011;8249;48.708;9.030;2022-08-18T04:08:44;9.10;;;8.20;;
16282;SDS011;8249;48.708;9.030;2022-08-18T04:11:12;9.43;;;8.53;;
16282;SDS011;8249;48.708;9.030;2022-08-18T04:13:39;8.97;;;8.27;;
16282;SDS011;8249;48.708;9.030;2022-08-18T04:16:08;10.50;;;8.20;;
16282;SDS011;8249;48.708;9.030;2022-08-18T04:18:35;10.13;;;9.10;;
16282;SDS011;8249;48.708;9.030;2022-08-18T04:21:03;9.73;;;8.83;;
16282;SDS011;8249;48.708;9.030;2022-08-18T04:23:32;8.53;;;7.77;;
16282;SDS011;8249;48.708;9.030;2022-08-18T04:25:59;9.40;;;7.27;;
16282;SDS011;8249;48.708;9.030;2022-08-18T04:28:27;7.20;;;6.70;;
16282;SDS011;8249;48.708;9.030;2022-08-18T04:30:55;7.17;;;6.57;;
16282;SDS011;8249;48.708;9.030;2022-08-18T04:33:25;8.50;;;7.77;;
16282;SDS011;8249;48.708;9.030;2022-08-18T04:35:53;7.50;;;6.90;;
16282;SDS011;8249;48.708;9.030;2022-08-18T04:38:20;7.67;;;6.97;;
16282;SDS011;8249;48.708;9.030;2022-08-18T04:40:48;7.27;;;6.60;;
16282;SDS011;8249;48.708;9.030;2022-08-18T04:43:16;7.97;;;7.17;;
16282;SDS011;8249;48.708;9.030;2022-08-18T04:45:43;7.47;;;6.90;;
16282;SDS011;8249;48.708;9.030;2022-08-18T04:48:11;8.17;;;7.03;;
16282;SDS011;8249;48.708;9.030;2022-08-18T04:50:41;7.27;;;6.70;;
16282;SDS011;8249;48.708;9.030;2022-08-18T04:53:09;7.90;;;7.20;;
16282;SDS011;8249;48.708;9.030;2022-08-18T04:55:53;7.73;;;7.03;;
16282;SDS011;8249;48.708;9.030;2022-08-18T04:58:22;7.50;;;6.80;;
16282;SDS011;8249;48.708;9.030;2022-08-18T05:00:55;7.63;;;7.03;;
16282;SDS011;8249;48.708;9.030;2022-08-18T05:03:23;7.50;;;6.90;;
16282;SDS011;8249;48.708;9.030;2022-08-18T05:05:52;7.20;;;6.60;;
16282;SDS011;8249;48.708;9.030;2022-08-18T05:08:20;8.00;;;7.40;;
16282;SDS011;8249;48.708;9.030;2022-08-18T05:10:51;8.07;;;7.37;;
16282;SDS011;8249;48.708;9.030;2022-08-18T05:13:18;7.87;;;7.17;;
16282;SDS011;8249;48.708;9.030;2022-08-18T05:15:51;7.40;;;6.80;;
16282;SDS011;8249;48.708;9.030;2022-08-18T05:18:19;7.50;;;6.90;;
16282;SDS011;8249;48.708;9.030;2022-08-18T05:20:49;7.70;;;7.03;;
16282;SDS011;8249;48.708;9.030;2022-08-18T05:23:18;8.00;;;7.27;;
16282;SDS011;8249;48.708;9.030;2022-08-18T05:25:46;7.70;;;7.00;;
16282;SDS011;8249;48.708;9.030;2022-08-18T05:28:13;7.67;;;7.07;;
16282;SDS011;8249;48.708;9.030;2022-08-18T05:30:40;7.57;;;6.90;;
16282;SDS011;8249;48.708;9.030;2022-08-18T05:33:08;8.00;;;7.30;;
16282;SDS011;8249;48.708;9.030;2022-08-18T05:35:36;8.53;;;7.73;;
16282;SDS011;8249;48.708;9.030;2022-08-18T05:38:14;9.97;;;8.97;;
16282;SDS011;8249;48.708;9.030;2022-08-18T05:41:02;10.90;;;9.48;;
16282;SDS011;8249;48.708;9.030;2022-08-18T05:43:34;10.13;;;9.33;;
16282;SDS011;8249;48.708;9.030;2022-08-18T05:46:02;9.20;;;8.40;;
16282;SDS011;8249;48.708;9.030;2022-08-18T05:48:31;10.43;;;9.43;;
16282;SDS011;8249;48.708;9.030;2022-08-18T05:51:01;9.70;;;8.87;;
16282;SDS011;8249;48.708;9.030;2022-08-18T05:53:35;9.73;;;8.80;;
16282;SDS011;8249;48.708;9.030;2022-08-18T05:56:17;9.52;;;8.63;;
16282;SDS011;8249;48.708;9.030;2022-08-18T05:59:13;9.60;;;8.70;;
16282;SDS011;8249;48.708;9.030;2022-08-18T06:01:47;9.03;;;8.13;;
16282;SDS011;8249;48.708;9.030;2022-08-18T06:04:21;8.67;;;7.87;;
16282;SDS011;8249;48.708;9.030;2022-08-18T06:06:52;8.47;;;7.77;;
16282;SDS011;8249;48.708;9.030;2022-08-18T06:09:25;9.10;;;8.30;;
16282;SDS011;8249;48.708;9.030;2022-08-18T06:12:07;9.13;;;8.23;;
16282;SDS011;8249;48.708;9.030;2022-08-18T06:14:38;8.70;;;8.00;;
16282;SDS011;8249;48.708;9.030;2022-08-18T06:17:09;8.70;;;7.77;;
16282;SDS011;8249;48.708;9.030;2022-08-18T06:19:51;8.27;;;7.47;;
16282;SDS011;8249;48.708;9.030;2022-08-18T06:22:30;8.27;;;7.47;;
16282;SDS011;8249;48.708;9.030;2022-08-18T06:25:08;8.90;;;8.20;;
16282;SDS011;8249;48.708;9.030;2022-08-18T06:27:43;7.97;;;7.28;;
16282;SDS011;8249;48.708;9.030;2022-08-18T06:30:21;8.43;;;7.55;;
16282;SDS011;8249;48.708;9.030;2022-08-18T06:32:55;8.13;;;7.30;;
16282;SDS011;8249;48.708;9.030;2022-08-18T06:35:33;8.50;;;7.80;;
16282;SDS011;8249;48.708;9.030;2022-08-18T06:38:05;8.97;;;8.10;;
16282;SDS011;8249;48.708;9.030;2022-08-18T06:41:02;8.20;;;7.45;;
16282;SDS011;8249;48.708;9.030;2022-08-18T06:43:34;7.88;;;7.28;;
16282;SDS011;8249;48.708;9.030;2022-08-18T06:46:06;7.30;;;6.80;;
16282;SDS011;8249;48.708;9.030;2022-08-18T06:48:39;7.65;;;6.95;;
16282;SDS011;8249;48.708;9.030;2022-08-18T06:51:16;6.82;;;6.32;;
16282;SDS011;8249;48.708;9.030;2022-08-18T06:53:49;7.32;;;6.63;;
16282;SDS011;8249;48.708;9.030;2022-08-18T06:56:26;6.47;;;5.78;;
16282;SDS011;8249;48.708;9.030;2022-08-18T06:59:12;6.63;;;6.13;;
16282;SDS011;8249;48.708;9.030;2022-08-18T07:01:51;6.30;;;5.70;;
16282;SDS011;8249;48.708;9.030;2022-08-18T07:07:32;6.53;;;6.03;;
16282;SDS011;8249;48.708;9.030;2022-08-18T07:10:01;6.57;;;6.05;;
16282;SDS011;8249;48.708;9.030;2022-08-18T07:12:30;6.10;;;5.60;;
16282;SDS011;8249;48.708;9.030;2022-08-18T07:14:58;6.05;;;5.55;;
16282;SDS011;8249;48.708;9.030;2022-08-18T07:17:27;6.25;;;5.60;;
16282;SDS011;8249;48.708;9.030;2022-08-18T07:19:59;6.40;;;5.90;;
16282;SDS011;8249;48.708;9.030;2022-08-18T07:22:31;8.18;;;6.28;;
16282;SDS011;8249;48.708;9.030;2022-08-18T07:24:59;6.30;;;5.80;;
16282;SDS011;8249;48.708;9.030;2022-08-18T07:27:42;6.43;;;5.93;;
16282;SDS011;8249;48.708;9.030;2022-08-18T07:30:14;6.45;;;5.95;;
16282;SDS011;8249;48.708;9.030;2022-08-18T07:32:55;6.80;;;6.20;;
16282;SDS011;8249;48.708;9.030;2022-08-18T07:35:29;7.07;;;6.47;;
16282;SDS011;8249;48.708;9.030;2022-08-18T07:38:04;7.22;;;6.63;;
16282;SDS011;8249;48.708;9.030;2022-08-18T07:40:44;6.90;;;6.40;;
16282;SDS011;8249;48.708;9.030;2022-08-18T07:43:19;6.97;;;6.32;;
16282;SDS011;8249;48.708;9.030;2022-08-18T07:45:51;6.80;;;6.30;;
16282;SDS011;8249;48.708;9.030;2022-08-18T07:48:24;7.30;;;6.70;;
16282;SDS011;8249;48.708;9.030;2022-08-18T07:50:57;6.85;;;6.28;;
16282;SDS011;8249;48.708;9.030;2022-08-18T07:53:35;7.43;;;6.70;;
16282;SDS011;8249;48.708;9.030;2022-08-18T07:56:11;7.53;;;6.82;;
16282;SDS011;8249;48.708;9.030;2022-08-18T07:58:45;6.63;;;6.05;;
16282;SDS011;8249;48.708;9.030;2022-08-18T08:01:17;6.85;;;6.28;;
16282;SDS011;8249;48.708;9.030;2022-08-18T08:03:56;6.97;;;6.30;;
16282;SDS011;8249;48.708;9.030;2022-08-18T08:06:28;7.10;;;6.47;;
16282;SDS011;8249;48.708;9.030;2022-08-18T08:09:00;6.75;;;6.25;;
16282;SDS011;8249;48.708;9.030;2022-08-18T08:11:38;6.85;;;6.20;;
16282;SDS011;8249;48.708;9.030;2022-08-18T08:14:18;6.55;;;6.00;;
16282;SDS011;8249;48.708;9.030;2022-08-18T08:16:58;6.90;;;6.30;;
16282;SDS011;8249;48.708;9.030;2022-08-18T08:19:44;6.45;;;5.95;;
16282;SDS011;8249;48.708;9.030;2022-08-18T08:22:30;7.13;;;6.53;;
16282;SDS011;8249;48.708;9.030;2022-08-18T08:25:04;7.45;;;6.78;;
16282;SDS011;8249;48.708;9.030;2022-08-18T08:27:39;7.18;;;6.22;;
16282;SDS011;8249;48.708;9.030;2022-08-18T08:30:17;7.10;;;6.38;;
16282;SDS011;8249;48.708;9.030;2022-08-18T08:32:49;6.82;;;6.32;;
16282;SDS011;8249;48.708;9.030;2022-08-18T08:35:32;6.57;;;5.97;;
16282;SDS011;8249;48.708;9.030;2022-08-18T08:38:05;6.63;;;6.03;;
16282;SDS011;8249;48.708;9.030;2022-08-18T08:40:42;7.63;;;6.63;;
16282;SDS011;8249;48.708;9.030;2022-08-18T08:43:18;6.75;;;5.93;;
16282;SDS011;8249;48.708;9.030;2022-08-18T08:45:54;7.13;;;6.53;;
16282;SDS011;8249;48.708;9.030;2022-08-18T08:48:28;8.32;;;6.57;;
16282;SDS011;8249;48.708;9.030;2022-08-18T08:50:59;7.00;;;6.40;;
16282;SDS011;8249;48.708;9.030;2022-08-18T08:53:31;6.78;;;6.28;;
16282;SDS011;8249;48.708;9.030;2022-08-18T08:56:05;7.00;;;6.50;;
16282;SDS011;8249;48.708;9.030;2022-08-18T08:58:35;7.22;;;6.63;;
16282;SDS011;8249;48.708;9.030;2022-08-18T09:01:11;7.13;;;6.63;;
16282;SDS011;8249;48.708;9.030;2022-08-18T09:03:52;7.00;;;6.40;;
16282;SDS011;8249;48.708;9.030;2022-08-18T09:06:26;8.32;;;6.43;;
16282;SDS011;8249;48.708;9.030;2022-08-18T09:09:08;6.80;;;6.30;;
16282;SDS011;8249;48.708;9.030;2022-08-18T09:11:56;6.53;;;6.00;;
16282;SDS011;8249;48.708;9.030;2022-08-18T09:17:52;6.88;;;6.35;;
16282;SDS011;8249;48.708;9.030;2022-08-18T09:20:44;7.22;;;6.60;;
16282;SDS011;8249;48.708;9.030;2022-08-18T09:23:17;6.80;;;6.32;;
16282;SDS011;8249;48.708;9.030;2022-08-18T09:25:47;6.60;;;6.10;;
16282;SDS011;8249;48.708;9.030;2022-08-18T09:28:17;6.50;;;6.00;;
16282;SDS011;8249;48.708;9.030;2022-08-18T09:30:51;6.93;;;5.95;;
16282;SDS011;8249;48.708;9.030;2022-08-18T09:33:48;5.85;;;5.45;;
16282;SDS011;8249;48.708;9.030;2022-08-18T09:36:33;6.60;;;6.00;;
16282;SDS011;8249;48.708;9.030;2022-08-18T09:39:18;6.45;;;5.85;;
16282;SDS011;8249;48.708;9.030;2022-08-18T09:42:06;7.03;;;6.10;;
16282;SDS011;8249;48.708;9.030;2022-08-18T09:50:54;5.47;;;5.00;;
16282;SDS011;8249;48.708;9.030;2022-08-18T10:05:34;6.78;;;6.18;;
16282;SDS011;8249;48.708;9.030;2022-08-18T10:11:18;7.90;;;5.75;;
16282;SDS011;8249;48.708;9.030;2022-08-18T10:13:58;7.10;;;6.50;;
16282;SDS011;8249;48.708;9.030;2022-08-18T10:16:34;6.60;;;6.18;;
16282;SDS011;8249;48.708;9.030;2022-08-18T10:19:12;6.70;;;6.20;;
16282;SDS011;8249;48.708;9.030;2022-08-18T10:22:01;6.50;;;6.00;;
16282;SDS011;8249;48.708;9.030;2022-08-18T10:24:33;6.45;;;6.00;;
16282;SDS011;8249;48.708;9.030;2022-08-18T10:29:59;6.90;;;6.30;;
16282;SDS011;8249;48.708;9.030;2022-08-18T10:32:37;6.72;;;6.05;;
16282;SDS011;8249;48.708;9.030;2022-08-18T10:38:23;6.25;;;5.75;;
16282;SDS011;8249;48.708;9.030;2022-08-18T10:40:57;6.25;;;5.75;;
16282;SDS011;8249;48.708;9.030;2022-08-18T10:43:31;7.18;;;6.32;;
16282;SDS011;8249;48.708;9.030;2022-08-18T10:46:02;7.03;;;6.43;;
16282;SDS011;8249;48.708;9.030;2022-08-18T10:48:30;6.90;;;6.20;;
16282;SDS011;8249;48.708;9.030;2022-08-18T10:51:01;6.88;;;6.10;;
16282;SDS011;8249;48.708;9.030;2022-08-18T10:53:34;6.95;;;6.35;;
16282;SDS011;8249;48.708;9.030;2022-08-18T10:56:09;6.40;;;5.90;;
16282;SDS011;8249;48.708;9.030;2022-08-18T10:58:51;8.05;;;6.07;;
16282;SDS011;8249;48.708;9.030;2022-08-18T11:01:35;7.38;;;6.70;;
16282;SDS011;8249;48.708;9.030;2022-08-18T11:04:21;7.47;;;6.60;;
16282;SDS011;8249;48.708;9.030;2022-08-18T11:06:56;6.78;;;6.25;;
16282;SDS011;8249;48.708;9.030;2022-08-18T11:09:28;7.93;;;6.70;;
16282;SDS011;8249;48.708;9.030;2022-08-18T11:11:58;8.05;;;7.00;;
16282;SDS011;8249;48.708;9.030;2022-08-18T11:14:40;7.72;;;7.20;;
16282;SDS011;8249;48.708;9.030;2022-08-18T11:17:45;7.15;;;6.55;;
16282;SDS011;8249;48.708;9.030;2022-08-18T11:20:22;7.97;;;7.28;;
16282;SDS011;8249;48.708;9.030;2022-08-18T11:22:53;8.15;;;7.32;;
16282;SDS011;8249;48.708;9.030;2022-08-18T11:25:23;7.97;;;7.38;;
16282;SDS011;8249;48.708;9.030;2022-08-18T11:27:52;8.18;;;7.38;;
16282;SDS011;8249;48.708;9.030;2022-08-18T11:30:20;8.45;;;7.75;;
16282;SDS011;8249;48.708;9.030;2022-08-18T11:32:51;8.23;;;7.50;;
16282;SDS011;8249;48.708;9.030;2022-08-18T11:35:19;7.82;;;7.20;;
16282;SDS011;8249;48.708;9.030;2022-08-18T11:37:51;7.68;;;6.88;;
16282;SDS011;8249;48.708;9.030;2022-08-18T11:40:31;8.38;;;6.90;;
16282;SDS011;8249;48.708;9.030;2022-08-18T11:43:03;7.88;;;7.03;;
16282;SDS011;8249;48.708;9.030;2022-08-18T11:45:46;9.25;;;6.72;;
16282;SDS011;8249;48.708;9.030;2022-08-18T11:48:18;6.95;;;6.38;;
16282;SDS011;8249;48.708;9.030;2022-08-18T11:50:49;8.02;;;6.47;;
16282;SDS011;8249;48.708;9.030;2022-08-18T11:53:37;7.38;;;6.15;;
16282;SDS011;8249;48.708;9.030;2022-08-18T11:56:14;7.22;;;6.72;;
16282;SDS011;8249;48.708;9.030;2022-08-18T11:58:50;7.70;;;7.00;;
16282;SDS011;8249;48.708;9.030;2022-08-18T12:01:31;7.78;;;7.05;;
16282;SDS011;8249;48.708;9.030;2022-08-18T12:04:07;6.68;;;6.03;;
16282;SDS011;8249;48.708;9.030;2022-08-18T12:06:40;8.43;;;7.35;;
16282;SDS011;8249;48.708;9.030;2022-08-18T12:09:20;7.78;;;6.75;;
16282;SDS011;8249;48.708;9.030;2022-08-18T12:11:53;7.38;;;6.78;;
16282;SDS011;8249;48.708;9.030;2022-08-18T12:14:24;8.52;;;6.85;;
16282;SDS011;8249;48.708;9.030;2022-08-18T12:16:52;8.02;;;7.30;;
16282;SDS011;8249;48.708;9.030;2022-08-18T12:19:20;7.95;;;7.28;;
16282;SDS011;8249;48.708;9.030;2022-08-18T12:21:51;7.82;;;7.15;;
16282;SDS011;8249;48.708;9.030;2022-08-18T12:24:20;7.90;;;7.28;;
16282;SDS011;8249;48.708;9.030;2022-08-18T12:26:49;7.68;;;6.80;;
16282;SDS011;8249;48.708;9.030;2022-08-18T12:29:17;7.55;;;6.95;;
16282;SDS011;8249;48.708;9.030;2022-08-18T12:31:45;7.25;;;6.65;;
16282;SDS011;8249;48.708;9.030;2022-08-18T12:34:15;7.53;;;6.78;;
16282;SDS011;8249;48.708;9.030;2022-08-18T12:36:43;7.78;;;6.95;;
16282;SDS011;8249;48.708;9.030;2022-08-18T12:39:11;7.75;;;7.07;;
16282;SDS011;8249;48.708;9.030;2022-08-18T12:41:38;6.90;;;6.40;;
16282;SDS011;8249;48.708;9.030;2022-08-18T12:44:05;7.20;;;6.63;;
16282;SDS011;8249;48.708;9.030;2022-08-18T12:46:32;6.97;;;6.47;;
16282;SDS011;8249;48.708;9.030;2022-08-18T12:49:01;8.32;;;7.47;;
16282;SDS011;8249;48.708;9.030;2022-08-18T12:51:29;7.47;;;6.97;;
16282;SDS011;8249;48.708;9.030;2022-08-18T12:53:56;7.15;;;6.55;;
16282;SDS011;8249;48.708;9.030;2022-08-18T12:56:24;6.45;;;5.85;;
16282;SDS011;8249;48.708;9.030;2022-08-18T12:58:54;7.00;;;6.07;;
16282;SDS011;8249;48.708;9.030;2022-08-18T13:01:23;6.43;;;5.93;;
16282;SDS011;8249;48.708;9.030;2022-08-18T13:03:50;6.85;;;6.38;;
16282;SDS011;8249;48.708;9.030;2022-08-18T13:06:20;6.70;;;6.03;;
16282;SDS011;8249;48.708;9.030;2022-08-18T13:08:48;6.32;;;5.82;;
16282;SDS011;8249;48.708;9.030;2022-08-18T13:11:15;5.90;;;5.50;;
16282;SDS011;8249;48.708;9.030;2022-08-18T13:13:43;5.75;;;5.25;;
16282;SDS011;8249;48.708;9.030;2022-08-18T13:16:11;7.38;;;5.63;;
16282;SDS011;8249;48.708;9.030;2022-08-18T13:18:39;6.38;;;5.78;;
16282;SDS011;8249;48.708;9.030;2022-08-18T13:21:07;6.05;;;5.40;;
16282;SDS011;8249;48.708;9.030;2022-08-18T13:23:37;5.90;;;5.40;;
16282;SDS011;8249;48.708;9.030;2022-08-18T13:26:05;6.20;;;5.70;;
16282;SDS011;8249;48.708;9.030;2022-08-18T13:28:34;6.55;;;5.97;;
16282;SDS011;8249;48.708;9.030;2022-08-18T13:31:01;6.82;;;6.10;;
16282;SDS011;8249;48.708;9.030;2022-08-18T13:33:29;8.10;;;6.32;;
16282;SDS011;8249;48.708;9.030;2022-08-18T13:35:57;6.40;;;5.90;;
16282;SDS011;8249;48.708;9.030;2022-08-18T13:38:24;6.10;;;5.70;;
16282;SDS011;8249;48.708;9.030;2022-08-18T13:40:53;6.47;;;5.97;;
16282;SDS011;8249;48.708;9.030;2022-08-18T13:43:23;7.00;;;6.30;;
16282;SDS011;8249;48.708;9.030;2022-08-18T13:45:54;7.22;;;6.60;;
16282;SDS011;8249;48.708;9.030;2022-08-18T13:48:22;6.78;;;6.18;;
16282;SDS011;8249;48.708;9.030;2022-08-18T13:50:49;7.03;;;6.50;;
16282;SDS011;8249;48.708;9.030;2022-08-18T13:53:18;6.45;;;5.80;;
16282;SDS011;8249;48.708;9.030;2022-08-18T13:55:46;6.45;;;5.97;;
16282;SDS011;8249;48.708;9.030;2022-08-18T13:58:15;6.40;;;5.80;;
16282;SDS011;8249;48.708;9.030;2022-08-18T14:00:42;6.28;;;5.78;;
16282;SDS011;8249;48.708;9.030;2022-08-18T14:03:10;6.43;;;5.93;;
16282;SDS011;8249;48.708;9.030;2022-08-18T14:05:37;6.40;;;5.90;;
16282;SDS011;8249;48.708;9.030;2022-08-18T14:08:04;6.75;;;6.10;;
16282;SDS011;8249;48.708;9.030;2022-08-18T14:10:31;6.90;;;6.22;;
16282;SDS011;8249;48.708;9.030;2022-08-18T14:12:59;7.43;;;6.20;;
16282;SDS011;8249;48.708;9.030;2022-08-18T14:15:28;6.95;;;6.35;;
16282;SDS011;8249;48.708;9.030;2022-08-18T14:17:55;6.22;;;5.72;;
16282;SDS011;8249;48.708;9.030;2022-08-18T14:20:22;6.22;;;5.57;;
16282;SDS011;8249;48.708;9.030;2022-08-18T14:23:07;7.10;;;6.55;;
16282;SDS011;8249;48.708;9.030;2022-08-18T14:25:52;6.88;;;6.28;;
16282;SDS011;8249;48.708;9.030;2022-08-18T14:28:36;7.60;;;6.90;;
16282;SDS011;8249;48.708;9.030;2022-08-18T14:31:05;8.25;;;7.55;;
16282;SDS011;8249;48.708;9.030;2022-08-18T14:33:32;7.60;;;7.00;;
16282;SDS011;8249;48.708;9.030;2022-08-18T14:36:01;7.72;;;7.03;;
16282;SDS011;8249;48.708;9.030;2022-08-18T14:38:29;7.10;;;6.60;;
16282;SDS011;8249;48.708;9.030;2022-08-18T14:40:57;7.22;;;6.53;;
16282;SDS011;8249;48.708;9.030;2022-08-18T14:43:27;7.15;;;6.65;;
16282;SDS011;8249;48.708;9.030;2022-08-18T14:45:55;7.70;;;7.05;;
16282;SDS011;8249;48.708;9.030;2022-08-18T14:48:24;7.15;;;6.55;;
16282;SDS011;8249;48.708;9.030;2022-08-18T14:50:52;7.80;;;7.07;;
16282;SDS011;8249;48.708;9.030;2022-08-18T14:53:24;8.00;;;6.63;;
16282;SDS011;8249;48.708;9.030;2022-08-18T14:55:53;7.40;;;6.70;;
16282;SDS011;8249;48.708;9.030;2022-08-18T14:58:22;7.60;;;6.80;;
16282;SDS011;8249;48.708;9.030;2022-08-18T15:00:53;7.72;;;6.93;;
16282;SDS011;8249;48.708;9.030;2022-08-18T15:03:21;7.57;;;6.85;;
16282;SDS011;8249;48.708;9.030;2022-08-18T15:05:49;7.63;;;6.93;;
16282;SDS011;8249;48.708;9.030;2022-08-18T15:08:25;7.30;;;6.55;;
16282;SDS011;8249;48.708;9.030;2022-08-18T15:10:53;7.97;;;6.68;;
16282;SDS011;8249;48.708;9.030;2022-08-18T15:13:21;7.63;;;6.97;;
16282;SDS011;8249;48.708;9.030;2022-08-18T15:15:49;6.95;;;6.45;;
16282;SDS011;8249;48.708;9.030;2022-08-18T15:18:17;7.43;;;6.70;;
16282;SDS011;8249;48.708;9.030;2022-08-18T15:20:44;7.35;;;6.65;;
16282;SDS011;8249;48.708;9.030;2022-08-18T15:23:26;8.07;;;7.30;;
16282;SDS011;8249;48.708;9.030;2022-08-18T15:26:11;7.43;;;6.53;;
16282;SDS011;8249;48.708;9.030;2022-08-18T15:28:44;7.55;;;6.95;;
16282;SDS011;8249;48.708;9.030;2022-08-18T15:31:11;7.70;;;7.05;;
16282;SDS011;8249;48.708;9.030;2022-08-18T15:33:38;7.05;;;6.40;;
16282;SDS011;8249;48.708;9.030;2022-08-18T15:36:05;7.35;;;6.68;;
16282;SDS011;8249;48.708;9.030;2022-08-18T15:38:34;8.63;;;6.85;;
16282;SDS011;8249;48.708;9.030;2022-08-18T15:41:01;7.25;;;6.63;;
16282;SDS011;8249;48.708;9.030;2022-08-18T15:43:29;7.15;;;6.60;;
16282;SDS011;8249;48.708;9.030;2022-08-18T15:45:58;7.28;;;6.60;;
16282;SDS011;8249;48.708;9.030;2022-08-18T15:48:26;7.03;;;6.53;;
16282;SDS011;8249;48.708;9.030;2022-08-18T15:50:54;7.47;;;6.70;;
16282;SDS011;8249;48.708;9.030;2022-08-18T15:53:22;7.47;;;6.80;;
16282;SDS011;8249;48.708;9.030;2022-08-18T15:55:52;7.22;;;6.65;;
16282;SDS011;8249;48.708;9.030;2022-08-18T15:58:19;7.03;;;6.40;;
16282;SDS011;8249;48.708;9.030;2022-08-18T16:00:46;7.20;;;6.60;;
16282;SDS011;8249;48.708;9.030;2022-08-18T16:03:14;6.43;;;5.82;;